sensor_id;sensor_type;location;lat;lon;timestamp;temperature;humidity
810;DHT22;387;48.772;9.186;2022-09-01T00:01:37;16.40;94.70
810;DHT22;387;48.772;9.186;2022-09-01T00:04:04;16.30;94.90
810;DHT22;387;48.772;9.186;2022-09-01T00:06:32;16.30;95.10
810;DHT22;387;48.772;9.186;2022-09-01T00:09:02;16.40;94.90
810;DHT22;387;48.772;9.186;2022-09-01T00:11:29;16.40;94.90
810;DHT22;387;48.772;9.186;2022-09-01T00:13:55;16.30;94.70
810;DHT22;387;48.772;9.186;2022-09-01T00:16:22;16.30;94.90
810;DHT22;387;48.772;9.186;2022-09-01T00:18:51;16.30;94.90
810;DHT22;387;48.772;9.186;2022-09-01T00:21:23;16.40;94.90
810;DHT22;387;48.772;9.186;2022-09-01T00:23:49;16.40;94.90
810;DHT22;387;48.772;9.186;2022-09-01T00:26:15;16.40;94.90
810;DHT22;387;48.772;9.186;2022-09-01T00:28:41;16.40;94.90
810;DHT22;387;48.772;9.186;2022-09-01T00:31:07;16.40;94.90
810;DHT22;387;48.772;9.186;2022-09-01T00:33:35;16.40;94.90
810;DHT22;387;48.772;9.186;2022-09-01T00:36:01;16.40;94.60
810;DHT22;387;48.772;9.186;2022-09-01T00:38:27;16.40;94.50
810;DHT22;387;48.772;9.186;2022-09-01T00:40:53;16.40;94.50
810;DHT22;387;48.772;9.186;2022-09-01T00:43:45;16.40;94.40
810;DHT22;387;48.772;9.186;2022-09-01T00:46:19;16.40;94.40
810;DHT22;387;48.772;9.186;2022-09-01T00:48:47;16.30;94.50
810;DHT22;387;48.772;9.186;2022-09-01T00:51:15;16.40;94.60
810;DHT22;387;48.772;9.186;2022-09-01T00:53:42;16.30;94.50
810;DHT22;387;48.772;9.186;2022-09-01T00:56:08;16.30;94.60
810;DHT22;387;48.772;9.186;2022-09-01T00:58:35;16.30;94.50
810;DHT22;387;48.772;9.186;2022-09-01T01:01:02;16.30;94.60
810;DHT22;387;48.772;9.186;2022-09-01T01:03:28;16.30;94.50
810;DHT22;387;48.772;9.186;2022-09-01T01:05:56;16.30;94.40
810;DHT22;387;48.772;9.186;2022-09-01T01:08:26;16.30;94.30
810;DHT22;387;48.772;9.186;2022-09-01T01:11:12;16.30;94.30
810;DHT22;387;48.772;9.186;2022-09-01T01:14:05;16.20;94.50
810;DHT22;387;48.772;9.186;2022-09-01T01:16:39;16.20;94.60
810;DHT22;387;48.772;9.186;2022-09-01T01:19:36;16.10;94.70
810;DHT22;387;48.772;9.186;2022-09-01T01:23:03;16.10;94.80
810;DHT22;387;48.772;9.186;2022-09-01T01:25:54;16.10;94.80
810;DHT22;387;48.772;9.186;2022-09-01T01:28:22;16.10;94.70
810;DHT22;387;48.772;9.186;2022-09-01T01:30:53;16.10;94.60
810;DHT22;387;48.772;9.186;2022-09-01T01:33:21;16.10;94.60
810;DHT22;387;48.772;9.186;2022-09-01T01:35:48;16.00;94.60
810;DHT22;387;48.772;9.186;2022-09-01T01:38:16;16.00;94.60
810;DHT22;387;48.772;9.186;2022-09-01T01:40:47;16.00;94.50
810;DHT22;387;48.772;9.186;2022-09-01T01:43:14;16.00;94.40
810;DHT22;387;48.772;9.186;2022-09-01T01:45:45;15.80;94.50
810;DHT22;387;48.772;9.186;2022-09-01T01:48:13;15.80;94.90
810;DHT22;387;48.772;9.186;2022-09-01T01:50:43;15.80;95.00
810;DHT22;387;48.772;9.186;2022-09-01T01:53:10;15.80;95.00
810;DHT22;387;48.772;9.186;2022-09-01T01:55:36;15.80;94.90
810;DHT22;387;48.772;9.186;2022-09-01T01:58:01;15.80;94.80
810;DHT22;387;48.772;9.186;2022-09-01T02:00:31;15.80;94.80
810;DHT22;387;48.772;9.186;2022-09-01T02:02:59;15.80;94.80
810;DHT22;387;48.772;9.186;2022-09-01T02:05:28;15.80;94.80
810;DHT22;387;48.772;9.186;2022-09-01T02:07:57;15.80;94.80
810;DHT22;387;48.772;9.186;2022-09-01T02:10:29;15.70;94.80
810;DHT22;387;48.772;9.186;2022-09-01T02:12:56;15.70;94.80
810;DHT22;387;48.772;9.186;2022-09-01T02:15:28;15.70;94.80
810;DHT22;387;48.772;9.186;2022-09-01T02:17:54;15.70;94.80
810;DHT22;387;48.772;9.186;2022-09-01T02:20:25;15.60;94.70
810;DHT22;387;48.772;9.186;2022-09-01T02:22:53;15.60;94.90
810;DHT22;387;48.772;9.186;2022-09-01T02:25:21;15.50;94.90
810;DHT22;387;48.772;9.186;2022-09-01T02:27:47;15.60;95.00
810;DHT22;387;48.772;9.186;2022-09-01T02:30:16;15.60;95.00
810;DHT22;387;48.772;9.186;2022-09-01T02:32:42;15.60;94.80
810;DHT22;387;48.772;9.186;2022-09-01T02:35:08;15.50;94.90
810;DHT22;387;48.772;9.186;2022-09-01T02:37:36;15.50;95.00
810;DHT22;387;48.772;9.186;2022-09-01T02:40:05;15.60;95.10
810;DHT22;387;48.772;9.186;2022-09-01T02:42:31;15.50;95.00
810;DHT22;387;48.772;9.186;2022-09-01T02:44:56;15.40;95.00
810;DHT22;387;48.772;9.186;2022-09-01T02:47:23;15.50;95.20
810;DHT22;387;48.772;9.186;2022-09-01T02:49:49;15.50;95.10
810;DHT22;387;48.772;9.186;2022-09-01T02:52:16;15.50;95.00
810;DHT22;387;48.772;9.186;2022-09-01T02:54:43;15.50;94.80
810;DHT22;387;48.772;9.186;2022-09-01T02:57:10;15.50;94.70
810;DHT22;387;48.772;9.186;2022-09-01T02:59:36;15.50;94.60
810;DHT22;387;48.772;9.186;2022-09-01T03:02:02;15.30;94.60
810;DHT22;387;48.772;9.186;2022-09-01T03:04:28;15.30;94.90
810;DHT22;387;48.772;9.186;2022-09-01T03:06:58;15.30;94.90
810;DHT22;387;48.772;9.186;2022-09-01T03:09:23;15.30;94.90
810;DHT22;387;48.772;9.186;2022-09-01T03:11:51;15.30;95.10
810;DHT22;387;48.772;9.186;2022-09-01T03:14:18;15.30;95.00
810;DHT22;387;48.772;9.186;2022-09-01T03:16:44;15.30;95.00
810;DHT22;387;48.772;9.186;2022-09-01T03:19:10;15.30;95.10
810;DHT22;387;48.772;9.186;2022-09-01T03:21:41;15.30;95.20
810;DHT22;387;48.772;9.186;2022-09-01T03:24:09;15.20;95.10
810;DHT22;387;48.772;9.186;2022-09-01T03:26:37;15.20;95.30
810;DHT22;387;48.772;9.186;2022-09-01T03:29:03;15.20;95.40
810;DHT22;387;48.772;9.186;2022-09-01T03:31:29;15.30;95.40
810;DHT22;387;48.772;9.186;2022-09-01T03:33:55;15.30;95.30
810;DHT22;387;48.772;9.186;2022-09-01T03:36:24;15.30;95.30
810;DHT22;387;48.772;9.186;2022-09-01T03:38:51;15.30;95.20
810;DHT22;387;48.772;9.186;2022-09-01T03:41:20;15.30;95.30
810;DHT22;387;48.772;9.186;2022-09-01T03:43:47;15.20;95.20
810;DHT22;387;48.772;9.186;2022-09-01T03:46:14;15.20;95.30
810;DHT22;387;48.772;9.186;2022-09-01T03:48:47;15.20;95.40
810;DHT22;387;48.772;9.186;2022-09-01T03:51:15;15.20;95.60
810;DHT22;387;48.772;9.186;2022-09-01T03:53:41;15.20;95.50
810;DHT22;387;48.772;9.186;2022-09-01T03:56:06;15.20;95.50
810;DHT22;387;48.772;9.186;2022-09-01T03:58:33;15.20;95.40
810;DHT22;387;48.772;9.186;2022-09-01T04:01:00;15.20;95.50
810;DHT22;387;48.772;9.186;2022-09-01T04:03:30;15.20;95.50
810;DHT22;387;48.772;9.186;2022-09-01T04:05:58;15.20;95.50
810;DHT22;387;48.772;9.186;2022-09-01T04:08:24;15.10;95.60
810;DHT22;387;48.772;9.186;2022-09-01T04:10:54;15.00;95.80
810;DHT22;387;48.772;9.186;2022-09-01T04:13:29;15.00;96.00
810;DHT22;387;48.772;9.186;2022-09-01T04:15:57;15.00;96.00
810;DHT22;387;48.772;9.186;2022-09-01T04:18:23;15.00;96.00
810;DHT22;387;48.772;9.186;2022-09-01T04:20:57;15.00;96.00
810;DHT22;387;48.772;9.186;2022-09-01T04:26:10;15.00;95.80
810;DHT22;387;48.772;9.186;2022-09-01T04:28:47;14.90;95.90
810;DHT22;387;48.772;9.186;2022-09-01T04:31:17;14.90;95.90
810;DHT22;387;48.772;9.186;2022-09-01T04:33:45;14.80;95.90
810;DHT22;387;48.772;9.186;2022-09-01T04:36:24;14.80;95.90
810;DHT22;387;48.772;9.186;2022-09-01T04:38:58;14.80;95.90
810;DHT22;387;48.772;9.186;2022-09-01T04:41:30;14.80;95.90
810;DHT22;387;48.772;9.186;2022-09-01T04:43:57;14.80;95.90
810;DHT22;387;48.772;9.186;2022-09-01T04:46:25;14.70;95.80
810;DHT22;387;48.772;9.186;2022-09-01T04:48:53;14.70;96.00
810;DHT22;387;48.772;9.186;2022-09-01T04:51:20;14.60;96.10
810;DHT22;387;48.772;9.186;2022-09-01T04:53:47;14.70;96.10
810;DHT22;387;48.772;9.186;2022-09-01T04:56:15;14.70;96.10
810;DHT22;387;48.772;9.186;2022-09-01T04:58:48;14.70;96.10
810;DHT22;387;48.772;9.186;2022-09-01T05:01:16;14.70;96.10
810;DHT22;387;48.772;9.186;2022-09-01T05:03:43;14.70;96.10
810;DHT22;387;48.772;9.186;2022-09-01T05:06:17;14.70;96.20
810;DHT22;387;48.772;9.186;2022-09-01T05:08:44;14.70;96.40
810;DHT22;387;48.772;9.186;2022-09-01T05:11:11;14.80;96.40
810;DHT22;387;48.772;9.186;2022-09-01T05:13:42;14.90;96.40
810;DHT22;387;48.772;9.186;2022-09-01T05:16:13;14.90;96.10
810;DHT22;387;48.772;9.186;2022-09-01T05:18:42;14.90;95.60
810;DHT22;387;48.772;9.186;2022-09-01T05:21:13;14.90;95.40
810;DHT22;387;48.772;9.186;2022-09-01T05:23:42;14.90;95.50
810;DHT22;387;48.772;9.186;2022-09-01T05:26:23;14.90;95.60
810;DHT22;387;48.772;9.186;2022-09-01T05:28:53;15.10;95.60
810;DHT22;387;48.772;9.186;2022-09-01T05:31:20;15.10;95.50
810;DHT22;387;48.772;9.186;2022-09-01T05:33:48;15.20;95.40
810;DHT22;387;48.772;9.186;2022-09-01T05:36:17;15.20;95.30
810;DHT22;387;48.772;9.186;2022-09-01T05:38:45;15.20;95.30
810;DHT22;387;48.772;9.186;2022-09-01T05:41:13;15.20;95.40
810;DHT22;387;48.772;9.186;2022-09-01T05:43:40;15.30;95.40
810;DHT22;387;48.772;9.186;2022-09-01T05:46:12;15.30;95.30
810;DHT22;387;48.772;9.186;2022-09-01T05:48:41;15.30;95.10
810;DHT22;387;48.772;9.186;2022-09-01T05:51:08;15.30;95.30
810;DHT22;387;48.772;9.186;2022-09-01T05:53:34;15.30;95.50
810;DHT22;387;48.772;9.186;2022-09-01T05:56:04;15.40;95.40
810;DHT22;387;48.772;9.186;2022-09-01T05:58:32;15.50;95.40
810;DHT22;387;48.772;9.186;2022-09-01T06:01:01;15.60;95.40
810;DHT22;387;48.772;9.186;2022-09-01T06:03:28;15.70;95.20
810;DHT22;387;48.772;9.186;2022-09-01T06:05:54;15.70;94.90
810;DHT22;387;48.772;9.186;2022-09-01T06:08:25;15.80;94.60
810;DHT22;387;48.772;9.186;2022-09-01T06:10:53;15.90;94.40
810;DHT22;387;48.772;9.186;2022-09-01T06:13:19;15.90;94.30
810;DHT22;387;48.772;9.186;2022-09-01T06:15:48;16.00;94.00
810;DHT22;387;48.772;9.186;2022-09-01T06:18:14;16.00;93.60
810;DHT22;387;48.772;9.186;2022-09-01T06:20:45;16.00;93.70
810;DHT22;387;48.772;9.186;2022-09-01T06:23:11;16.00;93.80
810;DHT22;387;48.772;9.186;2022-09-01T06:25:40;16.10;93.80
810;DHT22;387;48.772;9.186;2022-09-01T06:28:07;16.30;93.80
810;DHT22;387;48.772;9.186;2022-09-01T06:30:36;16.40;93.60
810;DHT22;387;48.772;9.186;2022-09-01T06:33:03;16.50;93.20
810;DHT22;387;48.772;9.186;2022-09-01T06:35:34;16.60;93.00
810;DHT22;387;48.772;9.186;2022-09-01T06:38:00;16.50;92.00
810;DHT22;387;48.772;9.186;2022-09-01T06:40:27;16.40;92.20
810;DHT22;387;48.772;9.186;2022-09-01T06:42:53;16.50;92.40
810;DHT22;387;48.772;9.186;2022-09-01T06:45:21;16.60;92.10
810;DHT22;387;48.772;9.186;2022-09-01T06:47:48;16.60;92.00
810;DHT22;387;48.772;9.186;2022-09-01T06:50:17;16.50;92.00
810;DHT22;387;48.772;9.186;2022-09-01T06:52:44;16.40;92.20
810;DHT22;387;48.772;9.186;2022-09-01T06:55:10;16.40;92.50
810;DHT22;387;48.772;9.186;2022-09-01T06:57:37;16.50;92.70
810;DHT22;387;48.772;9.186;2022-09-01T07:00:09;16.80;92.40
810;DHT22;387;48.772;9.186;2022-09-01T07:02:52;17.00;92.20
810;DHT22;387;48.772;9.186;2022-09-01T07:05:19;17.10;90.90
810;DHT22;387;48.772;9.186;2022-09-01T07:07:50;17.10;90.90
810;DHT22;387;48.772;9.186;2022-09-01T07:10:22;17.20;90.80
810;DHT22;387;48.772;9.186;2022-09-01T07:12:56;17.40;90.70
810;DHT22;387;48.772;9.186;2022-09-01T07:15:25;17.70;89.90
810;DHT22;387;48.772;9.186;2022-09-01T07:17:55;17.60;89.20
810;DHT22;387;48.772;9.186;2022-09-01T07:20:26;17.70;89.00
810;DHT22;387;48.772;9.186;2022-09-01T07:22:55;17.50;89.20
810;DHT22;387;48.772;9.186;2022-09-01T07:25:21;17.20;90.20
810;DHT22;387;48.772;9.186;2022-09-01T07:27:47;17.20;90.40
810;DHT22;387;48.772;9.186;2022-09-01T07:30:17;17.40;90.40
810;DHT22;387;48.772;9.186;2022-09-01T07:32:44;17.40;89.70
810;DHT22;387;48.772;9.186;2022-09-01T07:35:12;17.50;89.30
810;DHT22;387;48.772;9.186;2022-09-01T07:37:37;17.40;89.60
810;DHT22;387;48.772;9.186;2022-09-01T07:40:07;17.40;90.00
810;DHT22;387;48.772;9.186;2022-09-01T07:42:33;17.40;89.70
810;DHT22;387;48.772;9.186;2022-09-01T07:44:59;17.40;89.90
810;DHT22;387;48.772;9.186;2022-09-01T07:47:25;17.40;89.90
810;DHT22;387;48.772;9.186;2022-09-01T07:49:54;17.60;89.90
810;DHT22;387;48.772;9.186;2022-09-01T07:52:20;17.80;88.90
810;DHT22;387;48.772;9.186;2022-09-01T07:54:45;17.90;88.40
810;DHT22;387;48.772;9.186;2022-09-01T07:57:11;18.10;87.60
810;DHT22;387;48.772;9.186;2022-09-01T07:59:37;18.10;87.00
810;DHT22;387;48.772;9.186;2022-09-01T08:02:03;18.10;87.10
810;DHT22;387;48.772;9.186;2022-09-01T08:04:30;18.30;86.20
810;DHT22;387;48.772;9.186;2022-09-01T08:06:56;18.40;86.50
810;DHT22;387;48.772;9.186;2022-09-01T08:09:22;18.40;86.00
810;DHT22;387;48.772;9.186;2022-09-01T08:11:48;18.70;85.70
810;DHT22;387;48.772;9.186;2022-09-01T08:14:14;18.80;84.30
810;DHT22;387;48.772;9.186;2022-09-01T08:16:39;18.90;84.40
810;DHT22;387;48.772;9.186;2022-09-01T08:19:05;19.10;84.00
810;DHT22;387;48.772;9.186;2022-09-01T08:21:31;19.00;83.10
810;DHT22;387;48.772;9.186;2022-09-01T08:23:56;19.00;83.00
810;DHT22;387;48.772;9.186;2022-09-01T08:26:24;19.20;83.10
810;DHT22;387;48.772;9.186;2022-09-01T08:28:50;19.40;82.20
810;DHT22;387;48.772;9.186;2022-09-01T08:31:18;19.40;81.70
810;DHT22;387;48.772;9.186;2022-09-01T08:33:46;19.50;81.20
810;DHT22;387;48.772;9.186;2022-09-01T08:36:13;19.50;80.30
810;DHT22;387;48.772;9.186;2022-09-01T08:38:39;19.60;80.80
810;DHT22;387;48.772;9.186;2022-09-01T08:46:45;19.40;81.10
810;DHT22;387;48.772;9.186;2022-09-01T08:49:18;19.50;81.50
810;DHT22;387;48.772;9.186;2022-09-01T08:51:59;19.50;81.20
810;DHT22;387;48.772;9.186;2022-09-01T08:54:48;19.70;80.80
810;DHT22;387;48.772;9.186;2022-09-01T08:57:34;19.50;81.10
810;DHT22;387;48.772;9.186;2022-09-01T09:00:01;19.60;80.30
810;DHT22;387;48.772;9.186;2022-09-01T09:09:00;19.50;81.80
810;DHT22;387;48.772;9.186;2022-09-01T09:16:17;19.70;79.90
810;DHT22;387;48.772;9.186;2022-09-01T09:18:53;19.70;80.30
810;DHT22;387;48.772;9.186;2022-09-01T09:21:41;19.90;79.50
810;DHT22;387;48.772;9.186;2022-09-01T09:26:57;20.10;77.70
810;DHT22;387;48.772;9.186;2022-09-01T09:29:25;20.00;78.00
810;DHT22;387;48.772;9.186;2022-09-01T09:32:04;19.90;78.40
810;DHT22;387;48.772;9.186;2022-09-01T09:39:44;20.00;78.90
810;DHT22;387;48.772;9.186;2022-09-01T09:42:13;20.10;78.90
810;DHT22;387;48.772;9.186;2022-09-01T09:44:43;20.20;78.30
810;DHT22;387;48.772;9.186;2022-09-01T09:47:13;20.10;78.70
810;DHT22;387;48.772;9.186;2022-09-01T09:52:46;20.40;77.30
810;DHT22;387;48.772;9.186;2022-09-01T09:55:29;20.50;76.80
810;DHT22;387;48.772;9.186;2022-09-01T09:57:59;20.50;76.40
810;DHT22;387;48.772;9.186;2022-09-01T10:00:31;20.60;75.70
810;DHT22;387;48.772;9.186;2022-09-01T10:03:07;20.60;75.90
810;DHT22;387;48.772;9.186;2022-09-01T10:05:42;20.80;74.60
810;DHT22;387;48.772;9.186;2022-09-01T10:11:03;20.80;73.70
810;DHT22;387;48.772;9.186;2022-09-01T10:13:30;20.80;73.60
810;DHT22;387;48.772;9.186;2022-09-01T10:16:02;20.90;73.60
810;DHT22;387;48.772;9.186;2022-09-01T10:18:37;21.10;73.20
810;DHT22;387;48.772;9.186;2022-09-01T10:23:36;21.30;72.10
810;DHT22;387;48.772;9.186;2022-09-01T10:26:10;21.30;71.70
810;DHT22;387;48.772;9.186;2022-09-01T10:31:17;21.20;71.10
810;DHT22;387;48.772;9.186;2022-09-01T10:33:43;20.90;72.30
810;DHT22;387;48.772;9.186;2022-09-01T10:36:09;20.90;72.70
810;DHT22;387;48.772;9.186;2022-09-01T10:38:35;20.70;72.60
810;DHT22;387;48.772;9.186;2022-09-01T10:41:00;20.80;73.20
810;DHT22;387;48.772;9.186;2022-09-01T10:43:45;21.10;72.00
810;DHT22;387;48.772;9.186;2022-09-01T10:48:49;21.80;69.80
810;DHT22;387;48.772;9.186;2022-09-01T10:53:49;22.80;66.00
810;DHT22;387;48.772;9.186;2022-09-01T10:56:18;22.60;65.30
810;DHT22;387;48.772;9.186;2022-09-01T10:58:59;22.40;65.70
810;DHT22;387;48.772;9.186;2022-09-01T11:04:11;22.70;65.40
810;DHT22;387;48.772;9.186;2022-09-01T11:07:03;23.20;64.40
810;DHT22;387;48.772;9.186;2022-09-01T11:09:37;23.20;64.40
810;DHT22;387;48.772;9.186;2022-09-01T11:12:36;23.40;63.20
810;DHT22;387;48.772;9.186;2022-09-01T11:18:02;23.20;64.20
810;DHT22;387;48.772;9.186;2022-09-01T11:20:35;23.10;65.00
810;DHT22;387;48.772;9.186;2022-09-01T11:23:23;22.80;66.30
810;DHT22;387;48.772;9.186;2022-09-01T11:25:52;22.40;68.00
810;DHT22;387;48.772;9.186;2022-09-01T11:31:03;22.00;69.40
810;DHT22;387;48.772;9.186;2022-09-01T11:33:56;21.90;69.90
810;DHT22;387;48.772;9.186;2022-09-01T11:42:00;23.20;65.70
810;DHT22;387;48.772;9.186;2022-09-01T11:47:12;23.10;64.80
810;DHT22;387;48.772;9.186;2022-09-01T11:49:54;23.00;65.30
810;DHT22;387;48.772;9.186;2022-09-01T11:52:24;23.10;65.10
810;DHT22;387;48.772;9.186;2022-09-01T11:54:51;23.00;65.70
810;DHT22;387;48.772;9.186;2022-09-01T11:59:45;23.10;65.60
810;DHT22;387;48.772;9.186;2022-09-01T12:04:51;23.00;65.10
810;DHT22;387;48.772;9.186;2022-09-01T12:07:50;23.10;65.30
810;DHT22;387;48.772;9.186;2022-09-01T12:12:43;23.90;63.10
810;DHT22;387;48.772;9.186;2022-09-01T12:15:23;24.10;62.30
810;DHT22;387;48.772;9.186;2022-09-01T12:17:50;24.40;61.70
810;DHT22;387;48.772;9.186;2022-09-01T12:20:21;24.60;60.40
810;DHT22;387;48.772;9.186;2022-09-01T12:22:48;24.50;60.30
810;DHT22;387;48.772;9.186;2022-09-01T12:25:27;24.10;61.00
810;DHT22;387;48.772;9.186;2022-09-01T12:27:53;24.20;61.00
810;DHT22;387;48.772;9.186;2022-09-01T12:30:20;23.90;62.20
810;DHT22;387;48.772;9.186;2022-09-01T12:32:46;24.00;62.30
810;DHT22;387;48.772;9.186;2022-09-01T12:35:25;24.10;62.30
810;DHT22;387;48.772;9.186;2022-09-01T12:38:12;24.00;62.30
810;DHT22;387;48.772;9.186;2022-09-01T12:40:37;24.00;62.00
810;DHT22;387;48.772;9.186;2022-09-01T12:43:02;23.70;63.10
810;DHT22;387;48.772;9.186;2022-09-01T12:45:46;23.40;63.70
810;DHT22;387;48.772;9.186;2022-09-01T12:48:34;23.30;64.80
810;DHT22;387;48.772;9.186;2022-09-01T12:51:23;23.20;65.00
810;DHT22;387;48.772;9.186;2022-09-01T12:53:54;23.10;64.40
810;DHT22;387;48.772;9.186;2022-09-01T12:56:26;23.10;64.20
810;DHT22;387;48.772;9.186;2022-09-01T12:59:13;22.90;63.90
810;DHT22;387;48.772;9.186;2022-09-01T13:01:44;23.00;63.90
810;DHT22;387;48.772;9.186;2022-09-01T13:04:28;23.00;62.60
810;DHT22;387;48.772;9.186;2022-09-01T13:07:00;23.30;61.70
810;DHT22;387;48.772;9.186;2022-09-01T13:09:27;23.50;59.70
810;DHT22;387;48.772;9.186;2022-09-01T13:12:14;23.70;59.10
810;DHT22;387;48.772;9.186;2022-09-01T13:14:40;24.10;58.90
810;DHT22;387;48.772;9.186;2022-09-01T13:17:05;24.30;58.50
810;DHT22;387;48.772;9.186;2022-09-01T13:19:31;24.50;58.20
810;DHT22;387;48.772;9.186;2022-09-01T13:21:57;24.40;58.50
810;DHT22;387;48.772;9.186;2022-09-01T13:24:22;24.80;57.40
810;DHT22;387;48.772;9.186;2022-09-01T13:26:48;25.00;56.20
810;DHT22;387;48.772;9.186;2022-09-01T13:29:19;25.00;56.20
810;DHT22;387;48.772;9.186;2022-09-01T13:31:45;25.20;56.90
810;DHT22;387;48.772;9.186;2022-09-01T13:34:11;25.80;55.80
810;DHT22;387;48.772;9.186;2022-09-01T13:36:36;26.20;54.80
810;DHT22;387;48.772;9.186;2022-09-01T13:39:02;26.40;53.70
810;DHT22;387;48.772;9.186;2022-09-01T13:41:28;26.50;52.90
810;DHT22;387;48.772;9.186;2022-09-01T13:43:55;26.60;52.50
810;DHT22;387;48.772;9.186;2022-09-01T13:46:22;26.60;52.00
810;DHT22;387;48.772;9.186;2022-09-01T13:48:47;26.20;53.20
810;DHT22;387;48.772;9.186;2022-09-01T13:51:26;26.50;52.90
810;DHT22;387;48.772;9.186;2022-09-01T13:53:52;26.70;52.40
810;DHT22;387;48.772;9.186;2022-09-01T13:56:17;26.60;51.80
810;DHT22;387;48.772;9.186;2022-09-01T13:58:43;25.90;53.60
810;DHT22;387;48.772;9.186;2022-09-01T14:01:09;25.80;53.70
810;DHT22;387;48.772;9.186;2022-09-01T14:03:34;25.90;53.60
810;DHT22;387;48.772;9.186;2022-09-01T14:06:00;26.10;53.30
810;DHT22;387;48.772;9.186;2022-09-01T14:08:26;26.00;53.40
810;DHT22;387;48.772;9.186;2022-09-01T14:10:52;26.20;53.80
810;DHT22;387;48.772;9.186;2022-09-01T14:13:20;26.30;52.80
810;DHT22;387;48.772;9.186;2022-09-01T14:15:46;26.70;52.20
810;DHT22;387;48.772;9.186;2022-09-01T14:18:13;26.80;51.80
810;DHT22;387;48.772;9.186;2022-09-01T14:20:43;26.80;51.60
810;DHT22;387;48.772;9.186;2022-09-01T14:23:09;26.50;52.90
810;DHT22;387;48.772;9.186;2022-09-01T14:25:36;26.50;52.90
810;DHT22;387;48.772;9.186;2022-09-01T14:28:06;26.60;52.60
810;DHT22;387;48.772;9.186;2022-09-01T14:30:32;26.40;52.80
810;DHT22;387;48.772;9.186;2022-09-01T14:33:00;25.90;54.40
810;DHT22;387;48.772;9.186;2022-09-01T14:35:26;25.60;54.90
810;DHT22;387;48.772;9.186;2022-09-01T14:37:53;25.60;55.30
810;DHT22;387;48.772;9.186;2022-09-01T14:40:20;25.60;54.20
810;DHT22;387;48.772;9.186;2022-09-01T14:42:49;25.90;54.00
810;DHT22;387;48.772;9.186;2022-09-01T14:45:22;26.40;52.10
810;DHT22;387;48.772;9.186;2022-09-01T14:47:49;26.80;50.70
810;DHT22;387;48.772;9.186;2022-09-01T14:50:16;27.10;49.90
810;DHT22;387;48.772;9.186;2022-09-01T14:52:43;27.40;49.40
810;DHT22;387;48.772;9.186;2022-09-01T14:55:09;27.60;49.10
810;DHT22;387;48.772;9.186;2022-09-01T14:57:35;27.80;48.90
810;DHT22;387;48.772;9.186;2022-09-01T15:00:01;27.80;48.10
810;DHT22;387;48.772;9.186;2022-09-01T15:02:28;27.90;48.50
810;DHT22;387;48.772;9.186;2022-09-01T15:04:54;28.00;47.30
810;DHT22;387;48.772;9.186;2022-09-01T15:07:20;27.70;46.90
810;DHT22;387;48.772;9.186;2022-09-01T15:09:45;28.00;45.90
810;DHT22;387;48.772;9.186;2022-09-01T15:12:11;27.60;46.30
810;DHT22;387;48.772;9.186;2022-09-01T15:14:37;27.40;47.00
810;DHT22;387;48.772;9.186;2022-09-01T15:17:03;27.60;47.10
810;DHT22;387;48.772;9.186;2022-09-01T15:19:28;27.70;46.60
810;DHT22;387;48.772;9.186;2022-09-01T15:21:54;27.50;47.40
810;DHT22;387;48.772;9.186;2022-09-01T15:24:20;27.80;46.50
810;DHT22;387;48.772;9.186;2022-09-01T15:26:47;27.80;45.70
810;DHT22;387;48.772;9.186;2022-09-01T15:29:13;27.30;46.90
810;DHT22;387;48.772;9.186;2022-09-01T15:31:40;26.90;48.20
810;DHT22;387;48.772;9.186;2022-09-01T15:34:06;27.00;48.70
810;DHT22;387;48.772;9.186;2022-09-01T15:36:34;27.30;47.90
810;DHT22;387;48.772;9.186;2022-09-01T15:39:00;27.20;47.90
810;DHT22;387;48.772;9.186;2022-09-01T15:41:28;26.90;49.00
810;DHT22;387;48.772;9.186;2022-09-01T15:43:55;27.00;48.90
810;DHT22;387;48.772;9.186;2022-09-01T15:46:21;26.80;49.50
810;DHT22;387;48.772;9.186;2022-09-01T15:48:47;26.80;49.40
810;DHT22;387;48.772;9.186;2022-09-01T15:54:10;26.90;49.10
810;DHT22;387;48.772;9.186;2022-09-01T15:56:36;26.80;48.90
810;DHT22;387;48.772;9.186;2022-09-01T15:59:03;26.80;49.30
810;DHT22;387;48.772;9.186;2022-09-01T16:01:31;27.10;48.90
810;DHT22;387;48.772;9.186;2022-09-01T16:03:57;27.10;48.50
810;DHT22;387;48.772;9.186;2022-09-01T16:06:23;27.30;48.10
810;DHT22;387;48.772;9.186;2022-09-01T16:08:50;27.10;48.60
810;DHT22;387;48.772;9.186;2022-09-01T16:11:19;26.80;48.60
810;DHT22;387;48.772;9.186;2022-09-01T16:13:44;26.50;49.80
810;DHT22;387;48.772;9.186;2022-09-01T16:22:10;25.70;52.60
810;DHT22;387;48.772;9.186;2022-09-01T16:24:42;25.50;52.50
810;DHT22;387;48.772;9.186;2022-09-01T16:27:13;25.20;52.90
810;DHT22;387;48.772;9.186;2022-09-01T16:29:43;25.00;52.90
810;DHT22;387;48.772;9.186;2022-09-01T16:32:11;24.90;53.60
810;DHT22;387;48.772;9.186;2022-09-01T16:34:39;24.80;53.70
810;DHT22;387;48.772;9.186;2022-09-01T16:40:08;24.40;55.00
810;DHT22;387;48.772;9.186;2022-09-01T16:48:13;24.30;55.30
810;DHT22;387;48.772;9.186;2022-09-01T16:53:53;24.30;56.20
810;DHT22;387;48.772;9.186;2022-09-01T16:56:58;24.30;56.60
810;DHT22;387;48.772;9.186;2022-09-01T16:59:49;23.90;57.80
810;DHT22;387;48.772;9.186;2022-09-01T17:02:57;24.00;57.80
810;DHT22;387;48.772;9.186;2022-09-01T17:08:19;23.80;58.10
810;DHT22;387;48.772;9.186;2022-09-01T17:18:40;23.40;58.90
810;DHT22;387;48.772;9.186;2022-09-01T17:21:18;23.40;59.20
810;DHT22;387;48.772;9.186;2022-09-01T17:24:49;23.20;59.30
810;DHT22;387;48.772;9.186;2022-09-01T17:26:59;23.10;59.90
810;DHT22;387;48.772;9.186;2022-09-01T17:29:34;23.20;60.00
810;DHT22;387;48.772;9.186;2022-09-01T17:38:17;23.00;60.00
810;DHT22;387;48.772;9.186;2022-09-01T17:43:46;22.90;60.30
810;DHT22;387;48.772;9.186;2022-09-01T17:46:20;22.70;60.70
810;DHT22;387;48.772;9.186;2022-09-01T17:48:54;22.70;60.60
810;DHT22;387;48.772;9.186;2022-09-01T17:51:28;22.60;60.70
810;DHT22;387;48.772;9.186;2022-09-01T17:57:11;22.60;60.70
810;DHT22;387;48.772;9.186;2022-09-01T18:00:16;22.50;60.90
810;DHT22;387;48.772;9.186;2022-09-01T18:05:57;22.30;62.30
810;DHT22;387;48.772;9.186;2022-09-01T18:08:39;22.20;62.00
810;DHT22;387;48.772;9.186;2022-09-01T18:11:20;22.20;62.20
810;DHT22;387;48.772;9.186;2022-09-01T18:14:16;22.00;63.20
810;DHT22;387;48.772;9.186;2022-09-01T18:17:04;21.90;63.40
810;DHT22;387;48.772;9.186;2022-09-01T18:19:41;21.70;64.10
810;DHT22;387;48.772;9.186;2022-09-01T18:22:16;21.70;64.10
810;DHT22;387;48.772;9.186;2022-09-01T18:24:59;21.50;65.10
810;DHT22;387;48.772;9.186;2022-09-01T18:27:26;21.50;65.10
810;DHT22;387;48.772;9.186;2022-09-01T18:29:52;21.40;65.40
810;DHT22;387;48.772;9.186;2022-09-01T18:40:20;21.10;67.50
810;DHT22;387;48.772;9.186;2022-09-01T18:43:42;20.90;67.60
810;DHT22;387;48.772;9.186;2022-09-01T18:46:14;20.80;68.30
810;DHT22;387;48.772;9.186;2022-09-01T18:49:00;20.70;68.50
810;DHT22;387;48.772;9.186;2022-09-01T18:54:05;20.50;69.20
810;DHT22;387;48.772;9.186;2022-09-01T19:02:21;20.20;69.80
810;DHT22;387;48.772;9.186;2022-09-01T19:04:54;20.00;70.20
810;DHT22;387;48.772;9.186;2022-09-01T19:21:10;19.50;72.40